Time;durP1;ratioP1;P1;durP2;ratioP2;P2;SDS_P1;SDS_P2;PMS_P1;PMS_P2;Temp;Humidity;BMP_temperature;BMP_pressure;BME280_temperature;BME280_humidity;BME280_pressure;Samples;Min_cycle;Max_cycle;Signal;HPM_P1;HPM_P2
2021/06/06 00:01:39;;;;;;;17.70;12.15;;;17.50;99.90;;;;;;5021815;28;20090;-92
2021/06/06 00:04:09;;;;;;;19.48;12.50;;;17.40;99.90;;;;;;5022929;28;20046;-90
2021/06/06 00:06:38;;;;;;;17.80;12.77;;;17.40;99.90;;;;;;5021858;28;20494;-91
2021/06/06 00:09:09;;;;;;;17.75;11.75;;;17.40;99.90;;;;;;5027847;28;20069;-93
2021/06/06 00:11:40;;;;;;;18.80;12.10;;;17.40;99.90;;;;;;5027953;28;20076;-93
2021/06/06 00:14:10;;;;;;;17.40;12.25;;;17.50;99.90;;;;;;5026710;28;20069;-91
2021/06/06 00:16:41;;;;;;;23.80;12.52;;;17.40;99.90;;;;;;5024010;28;20054;-92
2021/06/06 00:19:08;;;;;;;19.73;12.13;;;17.40;99.90;;;;;;5022912;28;20038;-92
2021/06/06 00:21:36;;;;;;;19.60;11.98;;;17.40;99.90;;;;;;5024228;28;20053;-91
2021/06/06 00:24:05;;;;;;;21.55;13.00;;;17.50;99.90;;;;;;5024825;28;20042;-90
2021/06/06 00:26:32;;;;;;;26.05;13.77;;;17.50;99.90;;;;;;5023853;28;20045;-90
2021/06/06 00:28:59;;;;;;;20.63;12.85;;;17.50;99.90;;;;;;5024477;28;20084;-93
2021/06/06 00:31:25;;;;;;;18.25;12.25;;;17.50;99.90;;;;;;5024565;28;20060;-93
2021/06/06 00:33:52;;;;;;;22.17;13.20;;;17.40;99.90;;;;;;5024102;28;20050;-93
2021/06/06 00:36:20;;;;;;;22.90;13.48;;;17.50;99.90;;;;;;5024792;28;20057;-91
2021/06/06 00:38:47;;;;;;;19.73;13.20;;;17.50;99.90;;;;;;5024129;28;20081;-93
2021/06/06 00:41:16;;;;;;;20.13;12.98;;;17.50;99.90;;;;;;5021457;28;20146;-92
2021/06/06 00:43:42;;;;;;;22.15;13.27;;;17.40;99.90;;;;;;5022782;28;20061;-93
2021/06/06 00:46:09;;;;;;;24.98;13.23;;;17.50;99.90;;;;;;5020729;28;20145;-92
2021/06/06 00:48:36;;;;;;;21.50;13.27;;;17.50;99.90;;;;;;5021925;28;20165;-92
2021/06/06 00:51:08;;;;;;;23.08;13.18;;;17.50;99.90;;;;;;5023147;28;20049;-91
2021/06/06 00:53:37;;;;;;;20.73;12.82;;;17.50;99.90;;;;;;5021752;28;20054;-91
2021/06/06 00:56:06;;;;;;;20.27;13.00;;;17.50;99.90;;;;;;5020983;28;20082;-92
2021/06/06 00:58:34;;;;;;;17.10;12.52;;;17.40;99.90;;;;;;5023750;28;20046;-93
2021/06/06 01:01:03;;;;;;;21.83;13.73;;;17.50;99.90;;;;;;5020970;28;20623;-92
2021/06/06 01:03:30;;;;;;;20.40;14.27;;;17.50;99.90;;;;;;5020339;28;20064;-92
2021/06/06 01:05:59;;;;;;;23.55;15.35;;;17.60;99.90;;;;;;5019575;28;20084;-91
2021/06/06 01:08:28;;;;;;;22.85;14.35;;;17.60;99.90;;;;;;5018781;28;20052;-93
2021/06/06 01:10:59;;;;;;;22.00;14.07;;;17.60;99.90;;;;;;5017445;28;20058;-91
2021/06/06 01:13:31;;;;;;;19.98;14.23;;;17.70;99.90;;;;;;5014058;28;20058;-94
2021/06/06 01:16:05;;;;;;;25.88;15.00;;;17.70;99.90;;;;;;5013429;28;20042;-92
2021/06/06 01:18:34;;;;;;;21.63;14.48;;;17.80;99.90;;;;;;5013026;28;20125;-92
2021/06/06 01:21:11;;;;;;;27.63;14.75;;;17.70;99.90;;;;;;5011631;28;20057;-94
2021/06/06 01:24:16;;;;;;;22.10;13.88;;;17.70;99.90;;;;;;5009591;28;20097;-93
2021/06/06 01:26:45;;;;;;;21.48;15.40;;;17.60;99.90;;;;;;5011432;28;20088;-93
2021/06/06 01:29:22;;;;;;;21.15;13.38;;;17.70;99.90;;;;;;5013744;28;20121;-91
2021/06/06 01:31:50;;;;;;;;;;;17.70;99.90;;;;;;5013721;28;20072;-92
2021/06/06 01:34:19;;;;;;;23.48;14.50;;;17.70;99.90;;;;;;5006434;28;19928;-92
2021/06/06 01:36:52;;;;;;;30.35;15.95;;;17.70;99.90;;;;;;5011873;28;20069;-92
2021/06/06 01:39:23;;;;;;;25.52;16.23;;;17.90;99.90;;;;;;5013983;28;20085;-89
2021/06/06 01:41:55;;;;;;;25.20;16.90;;;17.70;99.90;;;;;;5015381;28;20469;-91
2021/06/06 01:44:26;;;;;;;24.52;16.15;;;17.80;99.90;;;;;;5014658;28;20056;-92
2021/06/06 01:46:57;;;;;;;25.67;15.23;;;17.80;99.90;;;;;;5011994;28;20064;-90
2021/06/06 01:49:25;;;;;;;23.58;15.48;;;17.80;99.90;;;;;;5011968;28;20046;-91
2021/06/06 01:51:55;;;;;;;22.75;14.93;;;17.70;99.90;;;;;;5015001;28;20435;-90
2021/06/06 01:54:27;;;;;;;28.02;15.35;;;17.80;99.90;;;;;;5017172;28;20064;-91
2021/06/06 01:56:55;;;;;;;24.15;15.68;;;17.80;99.90;;;;;;5017051;28;20733;-91
2021/06/06 01:59:25;;;;;;;25.60;15.70;;;17.70;99.90;;;;;;5018312;28;20914;-92
2021/06/06 02:01:52;;;;;;;22.83;14.95;;;17.70;99.90;;;;;;5021008;28;20054;-91
2021/06/06 02:04:20;;;;;;;23.40;16.13;;;17.80;99.90;;;;;;5020614;28;20069;-91
2021/06/06 02:06:50;;;;;;;24.75;14.07;;;17.90;99.90;;;;;;5021444;28;20071;-92
2021/06/06 02:09:21;;;;;;;24.25;15.68;;;17.90;99.90;;;;;;5020009;28;20054;-91
2021/06/06 02:11:51;;;;;;;24.42;16.00;;;17.90;99.90;;;;;;5026965;28;20053;-92
2021/06/06 02:14:21;;;;;;;26.00;15.43;;;18.10;99.90;;;;;;5027823;28;20113;-91
2021/06/06 02:16:50;;;;;;;22.95;15.85;;;17.90;99.90;;;;;;5028255;28;20109;-90
2021/06/06 02:19:16;;;;;;;25.83;15.82;;;17.90;99.90;;;;;;5031059;28;20110;-90
2021/06/06 02:21:43;;;;;;;23.98;15.90;;;17.90;99.90;;;;;;5029298;28;20093;-94
2021/06/06 02:24:10;;;;;;;26.95;16.45;;;17.90;99.90;;;;;;5029992;28;20110;-91
2021/06/06 02:26:43;;;;;;;26.17;16.25;;;17.80;99.90;;;;;;5030579;28;20076;-91
2021/06/06 02:29:18;;;;;;;26.90;17.50;;;17.80;99.90;;;;;;5025536;28;20493;-90
2021/06/06 02:31:54;;;;;;;29.67;18.00;;;17.80;99.90;;;;;;5024028;28;20085;-90
2021/06/06 02:34:26;;;;;;;28.90;17.93;;;17.80;99.90;;;;;;5025331;28;20367;-91
2021/06/06 02:37:00;;;;;;;31.15;19.48;;;17.80;99.90;;;;;;5024442;28;20042;-92
2021/06/06 02:39:30;;;;;;;30.13;19.17;;;17.90;99.90;;;;;;5023151;28;20060;-90
2021/06/06 02:42:03;;;;;;;33.88;19.70;;;17.80;99.90;;;;;;5020362;28;20057;-91
2021/06/06 02:44:36;;;;;;;28.08;18.55;;;17.80;99.90;;;;;;5020307;28;20066;-91
2021/06/06 02:47:04;;;;;;;31.17;18.05;;;17.90;99.90;;;;;;5027354;28;20054;-91
2021/06/06 02:49:35;;;;;;;31.23;18.02;;;17.90;99.90;;;;;;5026794;28;20121;-92
2021/06/06 02:52:06;;;;;;;31.50;18.88;;;18.00;99.90;;;;;;5030044;28;20053;-89
2021/06/06 02:54:37;;;;;;;30.17;18.48;;;17.90;99.90;;;;;;5029154;28;20111;-90
2021/06/06 02:57:08;;;;;;;33.25;18.10;;;17.90;99.90;;;;;;5027299;28;20133;-90
2021/06/06 02:59:39;;;;;;;29.23;17.38;;;17.90;99.90;;;;;;5024773;28;20077;-91
2021/06/06 03:02:09;;;;;;;28.08;17.95;;;17.90;99.90;;;;;;5024850;28;20056;-91
2021/06/06 03:04:38;;;;;;;32.13;18.15;;;17.90;99.90;;;;;;5025912;28;20082;-90
2021/06/06 03:07:08;;;;;;;29.80;18.77;;;17.90;99.90;;;;;;5025838;28;20065;-89
2021/06/06 03:09:35;;;;;;;31.25;18.08;;;17.90;99.90;;;;;;5022886;28;20053;-92
2021/06/06 03:12:07;;;;;;;30.27;19.40;;;17.90;99.90;;;;;;5024567;28;20109;-91
2021/06/06 03:14:37;;;;;;;30.42;18.35;;;17.80;99.90;;;;;;5022830;28;20119;-91
2021/06/06 03:17:07;;;;;;;32.95;18.88;;;17.80;99.90;;;;;;5022518;28;20053;-93
2021/06/06 03:19:39;;;;;;;35.45;21.02;;;17.80;99.90;;;;;;5021551;28;20069;-94
2021/06/06 03:22:09;;;;;;;32.95;20.15;;;17.80;99.90;;;;;;5019061;28;20136;-92
2021/06/06 03:24:39;;;;;;;31.95;19.63;;;18.00;99.90;;;;;;5018601;28;20069;-91
2021/06/06 03:27:08;;;;;;;31.10;18.30;;;17.80;99.90;;;;;;5020409;28;20198;-90
2021/06/06 03:29:49;;;;;;;35.85;19.95;;;17.80;99.90;;;;;;5019586;28;20057;-91
2021/06/06 03:32:15;;;;;;;30.90;18.98;;;17.90;99.90;;;;;;5018954;28;20165;-92
2021/06/06 03:34:42;;;;;;;34.38;20.20;;;17.90;99.90;;;;;;5021220;28;20137;-91
2021/06/06 03:37:08;;;;;;;34.00;19.73;;;18.00;99.90;;;;;;5022885;28;20428;-91
2021/06/06 03:39:34;;;;;;;31.35;18.35;;;17.90;99.90;;;;;;5021938;28;20089;-92
2021/06/06 03:42:01;;;;;;;35.45;20.38;;;17.90;99.90;;;;;;5018872;28;20093;-90
2021/06/06 03:44:28;;;;;;;34.05;21.10;;;17.90;99.90;;;;;;5017419;28;20064;-91
2021/06/06 03:46:57;;;;;;;35.30;21.17;;;17.90;99.90;;;;;;5019690;28;20483;-90
2021/06/06 03:49:24;;;;;;;32.83;21.15;;;17.90;99.90;;;;;;5016317;28;20056;-91
2021/06/06 03:51:51;;;;;;;29.00;18.95;;;17.90;99.90;;;;;;5012758;28;20257;-91
2021/06/06 03:54:19;;;;;;;36.05;21.73;;;17.90;99.90;;;;;;5014698;28;20466;-92
2021/06/06 03:56:47;;;;;;;33.00;21.15;;;18.00;99.90;;;;;;5014962;28;20091;-93
2021/06/06 03:59:15;;;;;;;34.95;19.52;;;18.00;99.90;;;;;;5012399;28;20050;-91
2021/06/06 04:01:43;;;;;;;36.25;20.15;;;18.20;99.90;;;;;;5015876;28;20244;-90
2021/06/06 04:04:11;;;;;;;33.25;19.63;;;18.00;99.90;;;;;;5010372;28;20129;-92
2021/06/06 04:06:38;;;;;;;31.88;19.48;;;18.10;99.90;;;;;;5009397;28;20069;-91
2021/06/06 04:09:06;;;;;;;35.85;19.30;;;18.10;99.90;;;;;;5008660;28;20140;-91
2021/06/06 04:11:32;;;;;;;28.95;18.00;;;18.10;99.90;;;;;;5009320;28;20442;-91
2021/06/06 04:13:59;;;;;;;27.48;18.17;;;18.10;99.90;;;;;;5011147;28;20479;-91
2021/06/06 04:16:25;;;;;;;26.23;17.17;;;18.10;99.90;;;;;;5011125;28;20104;-91
2021/06/06 04:18:52;;;;;;;29.38;19.42;;;18.10;99.90;;;;;;5009728;28;20491;-92
2021/06/06 04:21:21;;;;;;;;;;;18.10;99.90;;;;;;5009005;28;20180;-91
2021/06/06 04:23:48;;;;;;;21.40;12.98;;;18.10;99.90;;;;;;5005500;28;19964;-91
2021/06/06 04:26:15;;;;;;;24.00;15.57;;;18.10;99.90;;;;;;5006981;28;20109;-92
2021/06/06 04:28:41;;;;;;;20.77;13.65;;;18.20;99.90;;;;;;5008292;28;20140;-91
2021/06/06 04:31:09;;;;;;;23.20;13.05;;;18.10;99.90;;;;;;5007572;28;20060;-91
2021/06/06 04:33:35;;;;;;;26.92;15.00;;;18.10;99.90;;;;;;5008151;28;20058;-91
2021/06/06 04:36:02;;;;;;;20.27;14.52;;;18.20;99.90;;;;;;5008228;28;20140;-92
2021/06/06 04:38:31;;;;;;;19.23;13.57;;;18.10;99.90;;;;;;5007368;28;20054;-90
2021/06/06 04:41:00;;;;;;;20.38;13.82;;;18.30;99.90;;;;;;5006878;28;20046;-92
2021/06/06 04:43:28;;;;;;;18.13;13.27;;;18.40;99.90;;;;;;5006389;28;20152;-90
2021/06/06 04:45:55;;;;;;;19.77;12.80;;;18.20;99.90;;;;;;5005616;28;20151;-92
2021/06/06 04:48:24;;;;;;;15.30;10.02;;;18.20;99.90;;;;;;5007516;28;20037;-91
2021/06/06 04:50:51;;;;;;;13.88;9.70;;;18.30;99.90;;;;;;5007166;28;20089;-90
2021/06/06 04:53:18;;;;;;;11.95;8.32;;;18.30;99.90;;;;;;5012744;28;20469;-89
2021/06/06 04:55:46;;;;;;;14.18;8.70;;;18.30;99.90;;;;;;5014373;28;20464;-90
2021/06/06 04:58:15;;;;;;;14.30;8.25;;;18.20;99.90;;;;;;5014724;28;20053;-90
2021/06/06 05:00:42;;;;;;;19.77;9.77;;;18.30;99.90;;;;;;5014498;28;20120;-90
2021/06/06 05:03:10;;;;;;;17.33;9.77;;;18.30;99.90;;;;;;5017527;28;20084;-91
2021/06/06 05:05:36;;;;;;;14.55;9.65;;;18.40;99.90;;;;;;5013873;28;20087;-91
2021/06/06 05:08:04;;;;;;;15.25;9.75;;;18.30;99.90;;;;;;5016212;28;20077;-91
2021/06/06 05:10:33;;;;;;;15.25;10.18;;;18.30;99.90;;;;;;5014370;28;20081;-89
2021/06/06 05:13:02;;;;;;;17.90;11.48;;;18.20;99.90;;;;;;5014340;28;20050;-91
2021/06/06 05:15:28;;;;;;;17.40;10.85;;;18.30;99.90;;;;;;5015998;28;20720;-91
2021/06/06 05:17:55;;;;;;;19.17;11.35;;;18.40;99.90;;;;;;5014371;28;20113;-90
2021/06/06 05:20:24;;;;;;;18.80;12.40;;;18.30;99.90;;;;;;5012982;28;20117;-91
2021/06/06 05:22:51;;;;;;;20.23;12.32;;;18.30;99.90;;;;;;5015743;28;20180;-92
2021/06/06 05:25:17;;;;;;;21.38;12.93;;;18.50;99.90;;;;;;5009295;28;20077;-89
2021/06/06 05:27:44;;;;;;;19.13;12.60;;;18.40;99.90;;;;;;5007601;28;20058;-91
2021/06/06 05:30:17;;;;;;;21.25;12.95;;;18.40;99.90;;;;;;5007477;28;20058;-91
2021/06/06 05:32:43;;;;;;;21.00;12.77;;;18.40;99.90;;;;;;5007103;28;20084;-91
2021/06/06 05:35:11;;;;;;;19.63;12.88;;;18.50;99.90;;;;;;5008795;28;20054;-90
2021/06/06 05:37:37;;;;;;;18.92;12.75;;;18.50;99.90;;;;;;5011458;28;20042;-91
2021/06/06 05:40:05;;;;;;;18.73;12.55;;;18.60;99.90;;;;;;5006500;28;20111;-89
2021/06/06 05:42:31;;;;;;;21.50;13.25;;;18.60;99.90;;;;;;5004719;28;20050;-91
2021/06/06 05:44:58;;;;;;;20.83;12.55;;;18.60;99.90;;;;;;5004340;28;20064;-91
2021/06/06 05:47:25;;;;;;;22.60;14.10;;;18.60;99.90;;;;;;5009425;28;20550;-90
2021/06/06 05:49:52;;;;;;;19.55;13.07;;;18.70;99.90;;;;;;5020278;28;20117;-92
2021/06/06 05:52:19;;;;;;;21.80;13.40;;;18.80;99.90;;;;;;5029313;28;20065;-91
2021/06/06 05:54:46;;;;;;;21.05;12.55;;;18.80;99.90;;;;;;5028149;28;20400;-93
2021/06/06 05:57:13;;;;;;;22.02;13.20;;;18.90;99.90;;;;;;5024475;28;20063;-91
2021/06/06 05:59:39;;;;;;;21.92;13.13;;;18.90;99.90;;;;;;5024720;28;20838;-93
2021/06/06 06:02:07;;;;;;;18.35;12.30;;;18.90;99.90;;;;;;5025364;28;20057;-93
2021/06/06 06:04:35;;;;;;;21.58;13.63;;;19.10;99.90;;;;;;5024847;28;20050;-91
2021/06/06 06:07:02;;;;;;;17.60;12.65;;;19.10;99.90;;;;;;5024383;28;20125;-91
2021/06/06 06:09:28;;;;;;;17.73;12.05;;;19.20;99.90;;;;;;5020681;28;20046;-91
2021/06/06 06:11:55;;;;;;;20.00;13.60;;;19.30;99.90;;;;;;5020265;28;20092;-93
2021/06/06 06:14:21;;;;;;;22.02;12.68;;;19.40;99.90;;;;;;5018159;28;20073;-93
2021/06/06 06:16:48;;;;;;;23.45;13.60;;;19.50;99.90;;;;;;5017915;28;20061;-91
2021/06/06 06:19:14;;;;;;;19.50;12.73;;;19.50;99.90;;;;;;5016785;28;20062;-91
2021/06/06 06:21:42;;;;;;;22.00;14.43;;;19.60;99.90;;;;;;5016366;28;20136;-91
2021/06/06 06:24:10;;;;;;;20.35;13.05;;;19.70;99.90;;;;;;5017795;28;20134;-92
2021/06/06 06:26:37;;;;;;;17.27;12.38;;;19.60;99.90;;;;;;5017305;28;20069;-91
2021/06/06 06:29:04;;;;;;;19.85;12.70;;;19.70;99.90;;;;;;5016420;28;20522;-93
2021/06/06 06:31:31;;;;;;;21.02;13.73;;;19.80;99.90;;;;;;5015512;28;20109;-93
2021/06/06 06:33:59;;;;;;;19.70;13.23;;;19.60;99.90;;;;;;5015692;28;20077;-91
2021/06/06 06:36:26;;;;;;;23.65;13.95;;;19.90;99.90;;;;;;5015668;28;20115;-90
2021/06/06 06:38:54;;;;;;;18.38;12.25;;;19.70;99.90;;;;;;5014198;28;20585;-90
2021/06/06 06:41:22;;;;;;;17.48;12.18;;;19.70;99.90;;;;;;5012639;28;20446;-89
2021/06/06 06:43:48;;;;;;;16.52;12.02;;;19.80;99.90;;;;;;5013052;28;20466;-91
2021/06/06 06:46:15;;;;;;;16.20;11.90;;;19.80;99.90;;;;;;5012640;28;20068;-91
2021/06/06 06:48:41;;;;;;;17.35;11.30;;;19.80;99.90;;;;;;5012903;28;20074;-91
2021/06/06 06:51:09;;;;;;;15.18;10.80;;;19.90;99.90;;;;;;5012501;28;20550;-91
2021/06/06 06:53:36;;;;;;;15.73;11.07;;;19.90;99.90;;;;;;5013235;28;20503;-92
2021/06/06 06:56:04;;;;;;;16.45;11.73;;;19.90;99.90;;;;;;5013752;28;20156;-92
2021/06/06 06:58:31;;;;;;;15.80;11.85;;;20.00;99.90;;;;;;5012451;28;20077;-92
2021/06/06 07:00:58;;;;;;;17.63;12.18;;;20.00;99.90;;;;;;5014777;28;20108;-92
2021/06/06 07:03:27;;;;;;;16.35;10.85;;;19.90;99.90;;;;;;5015596;28;20058;-92
2021/06/06 07:05:56;;;;;;;16.38;10.90;;;19.80;99.90;;;;;;5017304;28;20058;-92
2021/06/06 07:08:24;;;;;;;15.90;10.25;;;20.20;99.90;;;;;;5013493;28;20133;-91
2021/06/06 07:10:52;;;;;;;16.30;9.98;;;20.00;99.90;;;;;;5012906;28;20078;-91
2021/06/06 07:13:21;;;;;;;14.98;10.43;;;20.30;99.90;;;;;;5012134;28;20076;-91
2021/06/06 07:15:48;;;;;;;13.57;9.93;;;20.50;99.90;;;;;;5011575;28;20050;-91
2021/06/06 07:18:18;;;;;;;16.23;10.35;;;20.60;99.90;;;;;;5010497;28;20113;-89
2021/06/06 07:20:46;;;;;;;14.93;9.68;;;20.80;99.90;;;;;;5010365;28;20058;-90
2021/06/06 07:23:14;;;;;;;14.18;9.23;;;20.90;99.90;;;;;;5010084;28;20057;-90
2021/06/06 07:25:42;;;;;;;16.05;9.48;;;21.10;99.90;;;;;;5010691;28;20076;-94
2021/06/06 07:28:10;;;;;;;17.20;9.70;;;21.10;99.90;;;;;;5010922;28;20061;-94
2021/06/06 07:30:42;;;;;;;16.63;10.20;;;21.00;99.90;;;;;;5013070;28;20074;-93
2021/06/06 07:33:09;;;;;;;15.07;10.18;;;21.00;99.90;;;;;;5010992;28;20533;-91
2021/06/06 07:35:37;;;;;;;16.60;10.57;;;20.90;99.90;;;;;;5009856;28;20058;-92
2021/06/06 07:38:03;;;;;;;14.40;10.77;;;20.90;99.90;;;;;;5010174;28;20054;-92
2021/06/06 07:40:32;;;;;;;16.77;11.15;;;20.90;99.90;;;;;;5009461;28;20196;-90
2021/06/06 07:42:59;;;;;;;14.35;10.23;;;20.90;99.90;;;;;;5009308;28;20056;-92
2021/06/06 07:45:28;;;;;;;16.00;10.68;;;20.90;99.90;;;;;;5010064;28;20053;-93
2021/06/06 07:47:56;;;;;;;14.25;10.40;;;21.00;99.90;;;;;;5009742;28;20073;-90
2021/06/06 07:50:27;;;;;;;21.77;11.23;;;20.90;99.90;;;;;;5009978;28;20061;-90
2021/06/06 07:52:54;;;;;;;16.30;11.20;;;21.00;99.90;;;;;;5010423;28;20085;-93
2021/06/06 07:55:23;;;;;;;15.27;11.00;;;20.90;99.90;;;;;;5009949;28;20103;-92
2021/06/06 07:57:50;;;;;;;14.52;10.73;;;20.90;99.90;;;;;;5010449;28;20058;-91
2021/06/06 08:00:20;;;;;;;15.85;10.73;;;21.00;99.90;;;;;;5011254;28;20081;-94
2021/06/06 08:02:47;;;;;;;14.90;11.02;;;21.00;99.90;;;;;;5010193;28;20461;-91
2021/06/06 08:05:17;;;;;;;17.95;11.27;;;20.90;99.90;;;;;;5010218;28;20054;-91
2021/06/06 08:07:43;;;;;;;17.85;11.75;;;21.10;99.90;;;;;;5010099;28;20054;-92
2021/06/06 08:10:13;;;;;;;15.45;10.60;;;21.00;99.90;;;;;;5009728;28;20138;-90
2021/06/06 08:12:40;;;;;;;16.38;11.43;;;21.00;99.90;;;;;;5010733;28;20057;-92
2021/06/06 08:15:08;;;;;;;17.15;10.48;;;21.10;99.90;;;;;;5011124;28;20077;-90
2021/06/06 08:17:35;;;;;;;15.77;10.90;;;21.20;99.90;;;;;;5009786;28;20053;-89
2021/06/06 08:20:03;;;;;;;14.95;10.95;;;21.20;99.90;;;;;;5009429;28;20100;-90
2021/06/06 08:22:31;;;;;;;16.35;10.75;;;21.30;99.90;;;;;;5009236;28;20095;-90
2021/06/06 08:24:58;;;;;;;14.63;10.68;;;21.50;99.90;;;;;;5009704;28;20060;-89
2021/06/06 08:27:25;;;;;;;16.17;10.43;;;21.60;99.90;;;;;;5010137;28;20065;-93
2021/06/06 08:29:51;;;;;;;15.15;10.85;;;21.70;99.90;;;;;;5005409;28;20050;-91
2021/06/06 08:32:17;;;;;;;14.77;10.25;;;21.70;99.90;;;;;;5003398;28;20137;-92
2021/06/06 08:34:44;;;;;;;14.25;9.95;;;21.60;99.90;;;;;;5003102;28;20053;-92
2021/06/06 08:37:10;;;;;;;14.65;10.32;;;21.60;99.90;;;;;;5007448;28;20109;-89
2021/06/06 08:39:38;;;;;;;15.20;11.10;;;21.60;99.90;;;;;;5009633;28;20046;-90
2021/06/06 08:42:12;;;;;;;14.05;9.98;;;21.60;99.90;;;;;;5011941;28;20478;-90
2021/06/06 08:44:41;;;;;;;14.00;10.40;;;21.60;99.90;;;;;;5012264;28;20077;-92
2021/06/06 08:47:12;;;;;;;15.35;10.68;;;21.50;99.90;;;;;;5012328;28;20062;-90
2021/06/06 08:49:41;;;;;;;15.55;11.10;;;21.60;99.90;;;;;;5012597;28;20133;-92
2021/06/06 08:52:22;;;;;;;16.95;11.32;;;21.60;99.90;;;;;;5011500;28;20046;-93
2021/06/06 08:55:00;;;;;;;17.88;12.43;;;21.60;99.90;;;;;;5011918;28;20448;-92
2021/06/06 08:57:33;;;;;;;17.35;12.25;;;21.50;99.90;;;;;;5014087;28;20062;-94
2021/06/06 09:00:01;;;;;;;19.35;13.55;;;21.50;99.90;;;;;;5017454;28;20061;-91
2021/06/06 09:02:33;;;;;;;29.17;16.77;;;21.20;99.90;;;;;;5023117;28;20088;-91
2021/06/06 09:05:01;;;;;;;29.33;18.08;;;21.00;99.90;;;;;;5023726;28;20050;-93
2021/06/06 09:07:34;;;;;;;33.70;18.77;;;20.80;99.90;;;;;;5025170;28;20084;-93
2021/06/06 09:10:07;;;;;;;40.13;19.38;;;20.70;99.90;;;;;;5024263;28;20081;-91
2021/06/06 09:12:33;;;;;;;27.38;16.25;;;20.30;99.90;;;;;;5022469;28;20133;-91
2021/06/06 09:15:00;;;;;;;28.55;17.27;;;20.00;99.90;;;;;;5022330;28;20081;-91
2021/06/06 09:17:39;;;;;;;30.83;18.40;;;19.90;99.90;;;;;;5025663;28;20061;-93
2021/06/06 09:20:20;;;;;;;31.38;18.85;;;19.80;99.90;;;;;;5026049;28;20061;-90
2021/06/06 09:22:47;;;;;;;20.40;13.48;;;19.70;99.90;;;;;;5030771;28;20049;-92
2021/06/06 09:25:27;;;;;;;15.55;11.43;;;19.60;99.90;;;;;;5036000;28;20030;-93
2021/06/06 09:28:00;;;;;;;21.60;11.82;;;19.70;99.90;;;;;;5040168;28;20037;-95
2021/06/06 09:30:27;;;;;;;20.05;12.30;;;19.60;99.90;;;;;;5038155;28;20041;-92
2021/06/06 09:33:07;;;;;;;18.38;13.23;;;19.80;99.90;;;;;;5035060;28;20054;-93
2021/06/06 09:35:37;;;;;;;18.45;12.77;;;20.10;99.90;;;;;;5034599;28;20089;-92
2021/06/06 09:38:14;;;;;;;15.52;10.30;;;20.40;99.90;;;;;;5035271;28;20145;-92
2021/06/06 09:40:43;;;;;;;;;;;20.70;99.90;;;;;;5036410;28;20042;-92
2021/06/06 09:43:22;;;;;;;13.02;9.23;;;20.60;99.90;;;;;;5034902;28;20370;-93
2021/06/06 09:45:48;;;;;;;14.50;9.88;;;21.60;99.90;;;;;;5035310;28;20104;-93
2021/06/06 09:48:26;;;;;;;19.23;10.60;;;22.30;99.90;;;;;;5033590;28;20054;-93
2021/06/06 09:50:55;;;;;;;12.77;10.00;;;23.10;99.90;;;;;;5028398;28;20042;-93
2021/06/06 09:53:24;;;;;;;14.70;10.52;;;24.20;99.90;;;;;;5022952;28;20064;-89
2021/06/06 09:56:03;;;;;;;13.23;9.88;;;25.00;99.90;;;;;;5022393;28;20072;-91
2021/06/06 09:58:33;;;;;;;13.48;10.35;;;25.80;99.90;;;;;;5023454;28;20076;-93
2021/06/06 10:01:06;;;;;;;13.20;10.77;;;26.60;99.90;;;;;;5024478;28;20050;-91
2021/06/06 10:03:36;;;;;;;12.80;10.38;;;27.30;99.90;;;;;;5025286;28;20058;-93
2021/06/06 10:06:18;;;;;;;14.20;10.05;;;27.60;99.90;;;;;;5025267;28;20073;-91
2021/06/06 10:09:02;;;;;;;10.60;9.15;;;28.10;99.90;;;;;;5022800;28;20149;-93
2021/06/06 10:11:35;;;;;;;13.77;9.75;;;28.10;99.90;;;;;;5020876;28;20419;-92
2021/06/06 10:14:03;;;;;;;12.40;8.57;;;28.10;99.90;;;;;;5023616;28;20478;-90
2021/06/06 10:16:35;;;;;;;11.63;9.10;;;27.50;99.90;;;;;;5022648;28;20125;-91
2021/06/06 10:19:08;;;;;;;10.32;8.75;;;26.80;99.90;;;;;;5021240;28;20050;-90
2021/06/06 10:21:37;;;;;;;13.85;8.82;;;26.10;99.90;;;;;;5024609;28;20054;-94
2021/06/06 10:24:09;;;;;;;13.27;9.80;;;25.20;99.90;;;;;;5020622;28;20060;-94
2021/06/06 10:26:41;;;;;;;15.05;10.48;;;24.90;99.90;;;;;;5022151;28;20498;-91
2021/06/06 10:29:14;;;;;;;11.80;9.57;;;24.20;99.90;;;;;;5021688;28;20108;-92
2021/06/06 10:31:45;;;;;;;14.70;11.13;;;23.80;99.90;;;;;;5018495;28;20164;-89
2021/06/06 10:34:22;;;;;;;15.10;11.13;;;23.40;99.90;;;;;;5019986;28;20077;-90
2021/06/06 10:36:48;;;;;;;;;;;23.50;99.90;;;;;;5019276;28;20048;-90
2021/06/06 10:39:19;;;;;;;14.27;10.10;;;23.60;99.90;;;;;;5017380;28;19921;-91
2021/06/06 10:41:54;;;;;;;14.98;10.70;;;23.50;99.90;;;;;;5018999;28;20049;-89
2021/06/06 10:44:25;;;;;;;12.60;8.93;;;23.40;99.90;;;;;;5017457;28;20073;-91
2021/06/06 10:46:56;;;;;;;9.77;7.07;;;23.50;99.90;;;;;;5019103;28;20054;-93
2021/06/06 10:49:25;;;;;;;9.20;7.32;;;23.20;99.90;;;;;;5018022;28;20050;-94
2021/06/06 10:51:56;;;;;;;11.13;8.25;;;23.30;99.90;;;;;;5018679;28;20074;-90
2021/06/06 10:54:35;;;;;;;10.85;8.48;;;23.10;99.90;;;;;;5019005;28;20050;-90
2021/06/06 10:57:06;;;;;;;13.25;9.50;;;23.20;99.90;;;;;;5018607;28;20068;-93
2021/06/06 10:59:41;;;;;;;14.00;9.00;;;23.20;99.90;;;;;;5021042;28;20084;-89
2021/06/06 11:02:11;;;;;;;13.73;8.63;;;23.00;99.90;;;;;;5022282;28;20106;-94
2021/06/06 11:04:51;;;;;;;14.88;8.52;;;23.10;99.90;;;;;;5022855;28;20050;-90
2021/06/06 11:07:37;;;;;;;11.20;8.20;;;22.70;99.90;;;;;;5029760;28;20148;-93
2021/06/06 11:10:09;;;;;;;9.32;6.90;;;22.50;99.90;;;;;;5028521;28;20674;-92
2021/06/06 11:12:39;;;;;;;11.02;8.90;;;22.40;99.90;;;;;;5027281;28;20438;-90
2021/06/06 11:15:20;;;;;;;13.73;9.90;;;22.50;99.90;;;;;;5028705;28;20186;-94
2021/06/06 11:17:46;;;;;;;11.57;8.57;;;22.30;99.90;;;;;;5033033;28;20046;-91
2021/06/06 11:20:16;;;;;;;10.98;7.60;;;22.10;99.90;;;;;;5030525;28;20050;-93
2021/06/06 11:22:45;;;;;;;8.48;5.55;;;22.20;99.90;;;;;;5027860;28;20046;-92
2021/06/06 11:25:29;;;;;;;6.88;4.43;;;22.40;99.90;;;;;;5022993;28;20073;-90
2021/06/06 11:28:00;;;;;;;6.20;4.28;;;22.50;99.90;;;;;;5023907;28;20117;-92
2021/06/06 11:30:41;;;;;;;6.70;4.25;;;22.70;99.90;;;;;;5025654;28;20045;-91
2021/06/06 11:33:10;;;;;;;7.45;4.57;;;22.90;99.90;;;;;;5026626;28;20115;-89
2021/06/06 11:35:49;;;;;;;6.95;4.47;;;23.00;99.90;;;;;;5026126;28;20081;-92
2021/06/06 11:38:29;;;;;;;6.78;4.40;;;23.30;99.90;;;;;;5026265;28;20072;-93
2021/06/06 11:41:23;;;;;;;7.00;5.03;;;23.20;99.90;;;;;;5022312;28;20046;-95
2021/06/06 11:43:54;;;;;;;8.10;4.70;;;23.20;99.90;;;;;;5026571;28;20080;-92
2021/06/06 11:46:27;;;;;;;7.00;4.65;;;23.10;99.90;;;;;;5030211;28;20052;-92
2021/06/06 11:49:01;;;;;;;7.75;4.60;;;22.90;99.90;;;;;;5031265;28;20136;-94
2021/06/06 11:51:33;;;;;;;8.10;4.85;;;23.00;99.90;;;;;;5030843;28;20054;-93
2021/06/06 11:54:02;;;;;;;8.15;5.63;;;22.90;99.90;;;;;;5024827;28;20054;-91
2021/06/06 11:56:33;;;;;;;13.57;8.73;;;22.90;99.90;;;;;;5021812;28;20037;-92
2021/06/06 11:59:10;;;;;;;14.05;10.02;;;22.50;99.90;;;;;;5026744;28;20049;-91
2021/06/06 12:01:57;;;;;;;16.08;11.27;;;22.10;99.90;;;;;;5027469;28;20041;-91
2021/06/06 12:04:43;;;;;;;18.30;11.73;;;22.00;99.90;;;;;;5029371;28;20049;-93
2021/06/06 12:07:18;;;;;;;14.80;10.48;;;21.50;99.90;;;;;;5033947;28;20065;-94
2021/06/06 12:09:52;;;;;;;15.07;11.10;;;21.40;99.90;;;;;;5035851;28;20041;-95
2021/06/06 12:12:28;;;;;;;18.85;10.10;;;21.40;99.90;;;;;;5035607;28;20033;-94
2021/06/06 12:15:36;;;;;;;14.73;10.75;;;21.20;99.90;;;;;;5034676;28;20037;-93
2021/06/06 12:18:09;;;;;;;16.73;11.20;;;21.20;99.90;;;;;;5025244;28;20065;-91
2021/06/06 12:20:55;;;;;;;18.17;10.73;;;21.20;99.90;;;;;;5030747;28;20061;-92
2021/06/06 12:23:33;;;;;;;17.95;11.38;;;21.00;99.90;;;;;;5036665;28;20041;-95
2021/06/06 12:26:20;;;;;;;17.63;12.40;;;20.70;99.90;;;;;;5036877;28;20046;-95
2021/06/06 12:28:52;;;;;;;11.95;7.82;;;20.80;99.90;;;;;;5035607;28;20111;-94
2021/06/06 12:31:33;;;;;;;11.82;8.48;;;20.20;99.90;;;;;;5036359;28;20044;-95
2021/06/06 12:34:22;;;;;;;10.10;7.75;;;20.10;99.90;;;;;;5036309;28;20058;-94
2021/06/06 12:36:55;;;;;;;11.35;8.45;;;20.00;99.90;;;;;;5034433;28;20057;-91
2021/06/06 12:39:23;;;;;;;15.65;10.00;;;19.90;99.90;;;;;;5027111;28;20046;-91
2021/06/06 12:41:53;;;;;;;15.57;9.30;;;19.80;99.90;;;;;;5026319;28;20218;-91
2021/06/06 12:44:24;;;;;;;20.00;11.02;;;19.80;99.90;;;;;;5028195;28;20065;-94
2021/06/06 12:46:55;;;;;;;14.45;9.55;;;19.90;99.90;;;;;;5027539;28;20049;-91